createdAt,value
2018-06-04T00:00:48.077Z,21.40
2018-06-04T00:03:16.327Z,21.40
2018-06-04T00:05:44.623Z,21.40
2018-06-04T00:08:12.881Z,21.30
2018-06-04T00:10:41.140Z,21.30
2018-06-04T00:13:09.389Z,21.30
2018-06-04T00:15:37.708Z,21.30
2018-06-04T00:18:06.007Z,21.20
2018-06-04T00:20:34.221Z,21.20
2018-06-04T00:23:02.472Z,21.20
2018-06-04T00:25:30.724Z,21.20
2018-06-04T00:27:58.970Z,21.20
2018-06-04T00:30:27.231Z,21.20
2018-06-04T00:32:55.472Z,21.10
2018-06-04T00:35:23.754Z,21.10
2018-06-04T00:37:52.025Z,21.10
2018-06-04T00:40:21.151Z,21.10
2018-06-04T00:42:49.379Z,21.10
2018-06-04T00:45:17.669Z,21.10
2018-06-04T00:47:45.908Z,21.10
2018-06-04T00:50:14.280Z,21.00
2018-06-04T00:52:42.566Z,21.00
2018-06-04T00:55:10.804Z,21.00
2018-06-04T00:57:39.056Z,21.00
2018-06-04T01:00:07.330Z,20.90
2018-06-04T01:02:35.590Z,20.90
2018-06-04T01:05:03.854Z,20.90
2018-06-04T01:07:32.160Z,20.90
2018-06-04T01:10:00.398Z,20.90
2018-06-04T01:12:28.653Z,20.90
2018-06-04T01:14:56.909Z,20.80
2018-06-04T01:17:25.173Z,20.80
2018-06-04T01:19:53.412Z,20.80
2018-06-04T01:22:21.672Z,20.80
2018-06-04T01:24:49.919Z,20.70
2018-06-04T01:27:18.177Z,20.70
2018-06-04T01:29:46.455Z,20.70
2018-06-04T01:32:14.735Z,20.70
2018-06-04T01:34:42.982Z,20.60
2018-06-04T01:37:11.243Z,20.60
2018-06-04T01:39:39.493Z,20.60
2018-06-04T01:42:07.753Z,20.50
2018-06-04T01:44:36.030Z,20.50
2018-06-04T01:47:05.160Z,20.50
2018-06-04T01:49:33.517Z,20.50
2018-06-04T01:52:01.761Z,20.40
2018-06-04T01:54:30.016Z,20.40
2018-06-04T01:59:26.209Z,20.40
2018-06-04T02:01:54.963Z,20.30
2018-06-04T02:04:23.224Z,20.30
2018-06-04T02:06:51.481Z,20.30
2018-06-04T02:09:19.726Z,20.30
2018-06-04T02:11:48.019Z,20.30
2018-06-04T02:14:16.271Z,20.20
2018-06-04T02:16:44.549Z,20.20
2018-06-04T02:21:40.703Z,20.10
2018-06-04T02:24:08.947Z,20.00
2018-06-04T02:26:37.216Z,20.00
2018-06-04T02:29:05.467Z,20.00
2018-06-04T02:31:33.726Z,20.00
2018-06-04T02:34:01.986Z,19.90
2018-06-04T02:36:30.266Z,19.80
2018-06-04T02:41:26.755Z,19.80
2018-06-04T02:43:55.059Z,19.80
2018-06-04T02:46:23.367Z,19.80
2018-06-04T02:48:51.740Z,19.80
2018-06-04T02:51:19.993Z,19.70
2018-06-04T02:53:48.229Z,19.70
2018-06-04T02:56:16.480Z,19.70
2018-06-04T02:58:44.780Z,19.70
2018-06-04T03:01:13.124Z,19.70
2018-06-04T03:03:41.439Z,19.70
2018-06-04T03:06:09.660Z,19.70
2018-06-04T03:08:37.920Z,19.70
2018-06-04T03:11:06.132Z,19.70
2018-06-04T03:13:34.380Z,19.70
2018-06-04T03:16:02.661Z,19.70
2018-06-04T03:18:30.929Z,19.70
2018-06-04T03:20:59.178Z,19.70
2018-06-04T03:23:27.428Z,19.70
2018-06-04T03:25:55.681Z,19.70
2018-06-04T03:28:23.929Z,19.70
2018-06-04T03:30:52.192Z,19.70
2018-06-04T03:33:20.505Z,19.70
2018-06-04T03:35:48.744Z,19.70
2018-06-04T03:38:17.011Z,19.70
2018-06-04T03:40:45.252Z,19.70
2018-06-04T03:43:13.560Z,19.70
2018-06-04T03:45:41.799Z,19.70
2018-06-04T03:48:10.068Z,19.70
2018-06-04T03:50:38.417Z,19.80
2018-06-04T03:53:06.707Z,19.80
2018-06-04T03:55:35.042Z,19.80
2018-06-04T03:58:03.354Z,19.80
2018-06-04T04:00:31.708Z,19.90
2018-06-04T04:03:00.115Z,19.90
2018-06-04T04:05:28.410Z,19.90
2018-06-04T04:07:56.825Z,19.90
2018-06-04T04:10:25.180Z,19.90
2018-06-04T04:12:53.685Z,20.00
2018-06-04T04:15:22.490Z,20.00
2018-06-04T04:17:50.844Z,20.10
2018-06-04T04:20:19.231Z,20.10
2018-06-04T04:22:47.651Z,20.10
2018-06-04T04:25:15.997Z,20.10
2018-06-04T04:27:44.383Z,20.20
2018-06-04T04:30:12.728Z,20.20
2018-06-04T04:32:41.150Z,20.20
2018-06-04T04:35:09.523Z,20.20
2018-06-04T04:37:37.882Z,20.30
2018-06-04T04:40:06.277Z,20.30
2018-06-04T04:47:30.512Z,20.60
2018-06-04T04:49:58.886Z,20.70
2018-06-04T04:52:27.185Z,20.80
2018-06-04T04:54:55.475Z,21.00
2018-06-04T04:57:23.745Z,21.20
2018-06-04T04:59:52.622Z,21.40
2018-06-04T05:02:20.914Z,21.60
2018-06-04T05:04:49.207Z,21.70
2018-06-04T05:07:17.487Z,22.00
2018-06-04T05:09:45.872Z,22.20
2018-06-04T05:12:14.113Z,22.50
2018-06-04T05:14:42.366Z,22.80
2018-06-04T05:17:10.612Z,23.10
2018-06-04T05:19:38.866Z,23.40
2018-06-04T05:22:07.123Z,23.70
2018-06-04T05:24:36.101Z,24.10
2018-06-04T05:27:04.407Z,24.40
2018-06-04T05:29:32.668Z,24.70
2018-06-04T05:32:00.927Z,24.90
2018-06-04T05:34:29.191Z,25.30
2018-06-04T05:36:58.440Z,25.50
2018-06-04T05:39:26.705Z,25.60
2018-06-04T05:41:55.007Z,25.80
2018-06-04T05:44:23.336Z,26.00
2018-06-04T05:46:51.714Z,26.00
2018-06-04T05:49:20.077Z,25.90
2018-06-04T05:54:16.356Z,26.00
2018-06-04T05:56:44.635Z,26.20
2018-06-04T05:59:12.980Z,26.20
2018-06-04T06:01:41.350Z,26.30
2018-06-04T06:04:09.580Z,26.40
2018-06-04T06:06:37.829Z,26.50
2018-06-04T06:09:08.136Z,26.50
2018-06-04T06:11:36.380Z,26.60
2018-06-04T06:14:04.904Z,26.70
2018-06-04T06:16:33.395Z,26.80
2018-06-04T06:19:01.663Z,26.80
2018-06-04T06:21:29.912Z,27.00
2018-06-04T06:23:58.250Z,27.10
2018-06-04T06:26:26.491Z,27.40
2018-06-04T06:28:54.783Z,27.70
2018-06-04T06:31:23.022Z,28.00
2018-06-04T06:33:51.291Z,28.10
2018-06-04T06:36:19.677Z,28.40
2018-06-04T06:38:47.968Z,28.60
2018-06-04T06:41:16.399Z,28.60
2018-06-04T06:43:44.668Z,28.60
2018-06-04T06:46:12.949Z,28.40
2018-06-04T06:48:41.217Z,28.10
2018-06-04T06:51:10.225Z,28.00
2018-06-04T06:53:38.516Z,27.80
2018-06-04T06:56:06.775Z,27.50
2018-06-04T06:58:35.085Z,27.40
2018-06-04T07:01:03.324Z,27.10
2018-06-04T07:03:31.629Z,27.00
2018-06-04T07:05:59.880Z,26.70
2018-06-04T07:08:28.164Z,26.70
2018-06-04T07:10:56.416Z,26.60
2018-06-04T07:13:24.748Z,26.60
2018-06-04T07:15:53.009Z,26.60
2018-06-04T07:18:21.296Z,26.50
2018-06-04T07:20:49.539Z,26.70
2018-06-04T07:23:17.831Z,26.70
2018-06-04T07:25:46.148Z,26.70
2018-06-04T07:28:14.425Z,26.80
2018-06-04T07:30:42.710Z,26.90
2018-06-04T07:33:10.956Z,27.00
2018-06-04T07:35:39.218Z,27.20
2018-06-04T07:38:07.462Z,27.30
2018-06-04T07:40:35.821Z,27.50
2018-06-04T07:43:04.076Z,27.70
2018-06-04T07:45:32.355Z,28.10
2018-06-04T07:48:00.601Z,28.50
2018-06-04T07:50:28.880Z,29.00
2018-06-04T07:52:57.137Z,29.50
2018-06-04T07:55:25.405Z,30.10
2018-06-04T07:57:53.648Z,30.70
2018-06-04T08:02:49.863Z,31.50
2018-06-04T08:05:18.173Z,32.00
2018-06-04T08:07:46.428Z,32.30
2018-06-04T08:10:14.840Z,32.50
2018-06-04T08:12:43.082Z,32.70
2018-06-04T08:15:11.339Z,32.90
2018-06-04T08:17:39.631Z,33.30
2018-06-04T08:20:07.921Z,33.40
2018-06-04T08:22:36.171Z,33.50
2018-06-04T08:25:04.447Z,33.60
2018-06-04T08:27:32.763Z,33.80
2018-06-04T08:30:01.016Z,33.90
2018-06-04T08:32:29.261Z,34.20
2018-06-04T08:34:57.535Z,33.90
2018-06-04T08:37:25.816Z,34.10
2018-06-04T08:39:54.089Z,34.10
2018-06-04T08:42:22.340Z,34.10
2018-06-04T08:44:50.603Z,33.70
2018-06-04T08:47:19.145Z,33.70
2018-06-04T08:49:47.403Z,33.80
2018-06-04T08:52:15.665Z,33.90
2018-06-04T08:54:43.954Z,33.70
2018-06-04T08:57:12.185Z,33.70
2018-06-04T08:59:40.466Z,33.50
2018-06-04T09:02:08.742Z,33.40
2018-06-04T09:04:36.997Z,33.30
2018-06-04T09:07:05.270Z,33.00
2018-06-04T09:09:33.534Z,32.80
2018-06-04T09:12:01.806Z,32.70
2018-06-04T09:14:30.569Z,32.20
2018-06-04T09:16:59.509Z,32.10
2018-06-04T09:19:28.612Z,32.00
2018-06-04T09:21:57.092Z,32.00
2018-06-04T09:24:25.922Z,31.90
2018-06-04T09:26:54.817Z,31.70
2018-06-04T09:29:23.891Z,31.70
2018-06-04T09:31:52.788Z,31.80
2018-06-04T09:34:21.903Z,31.80
2018-06-04T09:36:50.885Z,31.90
2018-06-04T09:39:20.089Z,31.90
2018-06-04T09:41:49.053Z,31.50
2018-06-04T09:44:17.946Z,31.20
2018-06-04T09:46:47.201Z,31.10
2018-06-04T09:49:15.432Z,31.30
2018-06-04T09:51:43.697Z,31.40
2018-06-04T09:54:11.944Z,31.60
2018-06-04T09:56:40.278Z,31.70
2018-06-04T09:59:08.537Z,31.90
2018-06-04T10:01:36.805Z,32.10
2018-06-04T10:04:05.074Z,32.10
2018-06-04T10:06:33.343Z,32.00
2018-06-04T10:09:01.580Z,32.10
2018-06-04T10:11:29.879Z,32.00
2018-06-04T10:13:58.137Z,32.30
2018-06-04T10:16:26.437Z,32.60
2018-06-04T10:18:54.687Z,32.70
2018-06-04T10:21:22.967Z,32.80
2018-06-04T10:23:51.263Z,32.90
2018-06-04T10:26:19.518Z,32.80
2018-06-04T10:28:47.905Z,33.20
2018-06-04T10:31:16.152Z,33.70
2018-06-04T10:33:44.440Z,34.10
2018-06-04T10:36:12.692Z,34.40
2018-06-04T10:38:40.964Z,34.70
2018-06-04T10:41:09.351Z,34.70
2018-06-04T10:43:37.611Z,34.70
2018-06-04T10:46:05.960Z,34.90
2018-06-04T10:48:34.275Z,35.60
2018-06-04T10:51:02.989Z,35.90
2018-06-04T10:53:31.641Z,36.20
2018-06-04T10:56:00.872Z,36.80
2018-06-04T10:58:29.568Z,37.30
2018-06-04T11:00:58.670Z,37.80
2018-06-04T11:03:27.367Z,37.90
2018-06-04T11:05:56.438Z,38.40
2018-06-04T11:08:24.826Z,38.80
2018-06-04T11:10:53.125Z,39.20
2018-06-04T11:13:21.427Z,39.60
2018-06-04T11:15:49.873Z,39.60
2018-06-04T11:18:18.592Z,39.80
2018-06-04T11:20:46.901Z,40.00
2018-06-04T11:23:15.126Z,39.90
2018-06-04T11:25:43.480Z,40.00
2018-06-04T11:28:11.689Z,40.10
2018-06-04T11:30:40.010Z,40.10
2018-06-04T11:33:08.268Z,39.30
2018-06-04T11:35:36.531Z,38.80
2018-06-04T11:38:05.429Z,38.70
2018-06-04T11:40:33.695Z,38.20
2018-06-04T11:43:01.992Z,37.70
2018-06-04T11:45:30.249Z,37.30
2018-06-04T11:47:58.496Z,37.00
2018-06-04T11:50:27.265Z,36.60
2018-06-04T11:52:55.522Z,36.30
2018-06-04T11:55:23.836Z,36.20
2018-06-04T11:57:52.126Z,35.70
2018-06-04T12:00:21.291Z,35.30
2018-06-04T12:02:49.587Z,34.80
2018-06-04T12:05:17.867Z,34.60
2018-06-04T12:07:46.112Z,34.20
2018-06-04T12:10:14.547Z,34.00
2018-06-04T12:12:42.787Z,33.80
2018-06-04T12:15:11.912Z,33.70
2018-06-04T12:17:41.269Z,33.50
2018-06-04T12:20:09.598Z,33.20
2018-06-04T12:22:37.971Z,33.00
2018-06-04T12:25:07.219Z,32.70
2018-06-04T12:27:36.258Z,32.60
2018-06-04T12:30:04.704Z,32.40
2018-06-04T12:32:33.055Z,32.40
2018-06-04T12:35:01.294Z,32.40
2018-06-04T12:39:58.216Z,32.40
2018-06-04T12:42:26.491Z,32.40
2018-06-04T12:44:54.783Z,32.40
2018-06-04T12:47:23.044Z,32.50
2018-06-04T12:49:51.307Z,32.50
2018-06-04T12:52:19.644Z,32.70
2018-06-04T12:54:47.896Z,33.10
2018-06-04T12:57:16.163Z,33.40
2018-06-04T12:59:44.411Z,33.60
2018-06-04T13:04:40.568Z,33.00
2018-06-04T13:07:08.798Z,32.80
2018-06-04T13:09:37.059Z,32.50
2018-06-04T13:12:05.320Z,32.30
2018-06-04T13:14:33.564Z,32.20
2018-06-04T13:17:13.636Z,32.10
2018-06-04T13:19:43.734Z,31.90
2018-06-04T13:22:12.168Z,31.70
2018-06-04T13:24:41.258Z,31.50
2018-06-04T13:27:09.922Z,31.40
2018-06-04T13:29:39.375Z,31.20
2018-06-04T13:32:07.802Z,31.00
2018-06-04T13:34:36.070Z,30.90
2018-06-04T13:37:04.340Z,30.80
2018-06-04T13:39:32.633Z,30.70
2018-06-04T13:42:00.840Z,30.60
2018-06-04T13:44:29.091Z,30.50
2018-06-04T13:46:57.547Z,30.40
2018-06-04T13:49:25.811Z,30.30
2018-06-04T13:51:54.076Z,30.20
2018-06-04T13:54:22.761Z,30.10
2018-06-04T13:56:51.159Z,30.00
2018-06-04T13:59:19.421Z,30.00
2018-06-04T14:01:47.690Z,30.00
2018-06-04T14:04:15.935Z,30.00
2018-06-04T14:06:44.248Z,29.90
2018-06-04T14:09:12.507Z,29.90
2018-06-04T14:11:40.763Z,29.90
2018-06-04T14:14:09.003Z,29.90
2018-06-04T14:16:37.296Z,29.90
2018-06-04T14:19:05.548Z,29.90
2018-06-04T14:21:33.816Z,29.80
2018-06-04T14:24:02.733Z,29.90
2018-06-04T14:26:31.922Z,29.80
2018-06-04T14:29:01.228Z,29.80
2018-06-04T14:31:29.633Z,29.70
2018-06-04T14:33:57.859Z,29.70
2018-06-04T14:36:26.125Z,29.60
2018-06-04T14:41:22.228Z,29.50
2018-06-04T14:43:50.527Z,29.60
2018-06-04T14:46:18.792Z,29.60
2018-06-04T14:48:47.065Z,29.50
2018-06-04T14:51:15.325Z,29.50
2018-06-04T14:53:43.561Z,29.50
2018-06-04T14:56:11.795Z,29.50
2018-06-04T14:58:40.149Z,29.50
2018-06-04T15:01:08.416Z,29.40
2018-06-04T15:03:36.737Z,29.40
2018-06-04T15:06:05.056Z,29.40
2018-06-04T15:08:33.490Z,29.30
2018-06-04T15:11:01.720Z,29.30
2018-06-04T15:13:30.043Z,29.30
2018-06-04T15:15:58.339Z,29.40
2018-06-04T15:18:26.769Z,29.30
2018-06-04T15:20:55.039Z,29.30
2018-06-04T15:23:24.069Z,29.30
2018-06-04T15:25:52.880Z,29.20
2018-06-04T15:28:21.661Z,29.20
2018-06-04T15:30:50.575Z,29.20
2018-06-04T15:33:19.912Z,29.20
2018-06-04T15:35:49.421Z,29.20
2018-06-04T15:38:19.124Z,29.20
2018-06-04T15:40:48.122Z,29.30
2018-06-04T15:43:17.330Z,29.20
2018-06-04T15:45:46.418Z,29.10
2018-06-04T15:48:15.510Z,29.00
2018-06-04T15:50:44.266Z,29.00
2018-06-04T15:53:13.167Z,29.10
2018-06-04T15:55:42.107Z,29.10
2018-06-04T15:58:11.227Z,29.10
2018-06-04T16:00:40.322Z,29.20
2018-06-04T16:03:09.686Z,29.10
2018-06-04T16:05:38.780Z,29.10
2018-06-04T16:08:07.090Z,29.00
2018-06-04T16:10:35.359Z,29.00
2018-06-04T16:13:03.846Z,29.00
2018-06-04T16:15:32.121Z,29.10
2018-06-04T16:18:00.377Z,29.00
2018-06-04T16:20:29.027Z,28.90
2018-06-04T16:22:58.023Z,28.90
2018-06-04T16:27:55.607Z,28.90
2018-06-04T16:30:23.957Z,28.90
2018-06-04T16:32:52.242Z,28.90
2018-06-04T16:35:20.506Z,28.90
2018-06-04T16:37:49.321Z,28.90
2018-06-04T16:40:19.135Z,28.90
2018-06-04T16:42:47.400Z,28.80
2018-06-04T16:45:15.656Z,28.80
2018-06-04T16:47:43.910Z,28.60
2018-06-04T16:50:12.193Z,28.40
2018-06-04T16:52:40.491Z,28.20
2018-06-04T16:55:08.822Z,28.10
2018-06-04T16:57:37.080Z,28.00
2018-06-04T17:00:05.365Z,27.90
2018-06-04T17:02:33.741Z,27.90
2018-06-04T17:05:02.264Z,27.80
2018-06-04T17:07:31.461Z,27.80
2018-06-04T17:10:00.874Z,27.70
2018-06-04T17:12:29.127Z,27.60
2018-06-04T17:14:57.384Z,27.60
2018-06-04T17:17:25.628Z,27.80
2018-06-04T17:19:53.941Z,27.80
2018-06-04T17:22:22.787Z,27.80
2018-06-04T17:24:51.626Z,27.80
2018-06-04T17:27:20.506Z,27.90
2018-06-04T17:29:49.578Z,28.00
2018-06-04T17:32:18.525Z,28.10
2018-06-04T17:34:46.776Z,28.10
2018-06-04T17:39:42.951Z,28.00
2018-06-04T17:42:11.198Z,28.00
2018-06-04T17:44:39.483Z,28.00
2018-06-04T17:47:07.732Z,28.10
2018-06-04T17:49:35.975Z,28.10
2018-06-04T17:54:32.120Z,28.10
2018-06-04T17:57:00.360Z,28.00
2018-06-04T17:59:28.612Z,28.00
2018-06-04T18:01:56.900Z,28.00
2018-06-04T18:04:25.159Z,28.00
2018-06-04T18:09:21.324Z,28.00
2018-06-04T18:11:49.666Z,28.00
2018-06-04T18:14:17.921Z,28.00
2018-06-04T18:16:46.301Z,28.00
2018-06-04T18:19:14.626Z,27.90
2018-06-04T18:21:42.877Z,27.90
2018-06-04T18:24:11.144Z,27.90
2018-06-04T18:26:39.421Z,27.90
2018-06-04T18:29:07.693Z,27.90
2018-06-04T18:31:35.936Z,27.90
2018-06-04T18:34:04.336Z,27.90
2018-06-04T18:36:32.623Z,27.90
2018-06-04T18:39:00.966Z,27.90
2018-06-04T18:41:29.288Z,27.90
2018-06-04T18:44:00.507Z,28.00
2018-06-04T18:46:28.827Z,27.90
2018-06-04T18:48:57.103Z,28.00
2018-06-04T18:51:25.366Z,27.90
2018-06-04T18:53:53.729Z,28.00
2018-06-04T18:56:22.089Z,27.90
2018-06-04T18:58:50.766Z,27.90
2018-06-04T19:01:19.266Z,28.00
2018-06-04T19:03:47.572Z,28.00
2018-06-04T19:06:15.836Z,28.00
2018-06-04T19:08:44.107Z,27.90
2018-06-04T19:11:12.372Z,27.90
2018-06-04T19:13:40.637Z,27.90
2018-06-04T19:16:09.611Z,27.90
2018-06-04T19:18:37.915Z,27.70
2018-06-04T19:21:06.188Z,27.70
2018-06-04T19:23:35.183Z,27.60
2018-06-04T19:26:03.971Z,27.60
2018-06-04T19:31:00.622Z,27.50
2018-06-04T19:33:28.907Z,27.50
2018-06-04T19:35:57.175Z,27.60
2018-06-04T19:38:25.453Z,27.50
2018-06-04T19:40:53.737Z,27.50
2018-06-04T19:43:22.000Z,27.50
2018-06-04T19:45:50.259Z,27.40
2018-06-04T19:48:18.527Z,27.40
2018-06-04T19:50:46.804Z,27.40
2018-06-04T19:53:15.049Z,27.30
2018-06-04T19:55:43.298Z,27.20
2018-06-04T19:58:11.811Z,27.10
2018-06-04T20:03:08.068Z,26.60
2018-06-04T20:05:36.320Z,26.30
2018-06-04T20:08:04.585Z,26.10
2018-06-04T20:10:32.844Z,25.90
2018-06-04T20:13:01.108Z,25.80
2018-06-04T20:15:29.436Z,25.70
2018-06-04T20:17:57.696Z,25.60
2018-06-04T20:20:25.968Z,25.50
2018-06-04T20:22:54.219Z,25.40
2018-06-04T20:27:50.492Z,25.20
2018-06-04T20:30:18.827Z,25.10
2018-06-04T20:32:47.061Z,25.10
2018-06-04T20:35:15.419Z,25.10
2018-06-04T20:37:43.770Z,25.00
2018-06-04T20:40:12.028Z,25.00
2018-06-04T20:42:40.279Z,25.00
2018-06-04T20:45:08.591Z,25.00
2018-06-04T20:47:36.846Z,25.10
2018-06-04T20:50:05.123Z,25.20
2018-06-04T20:57:29.276Z,25.20
2018-06-04T20:59:57.816Z,25.30
2018-06-04T21:04:53.907Z,25.20
2018-06-04T21:07:22.208Z,25.30
2018-06-04T21:09:50.619Z,25.20
2018-06-04T21:12:18.899Z,25.20
2018-06-04T21:14:47.266Z,25.20
2018-06-04T21:17:15.633Z,25.20
2018-06-04T21:19:43.909Z,25.10
2018-06-04T21:22:12.165Z,25.00
2018-06-04T21:24:40.426Z,25.00
2018-06-04T21:27:08.670Z,24.90
2018-06-04T21:29:36.945Z,24.80
2018-06-04T21:32:06.003Z,24.70
2018-06-04T21:34:34.278Z,24.70
2018-06-04T21:37:02.523Z,24.70
2018-06-04T21:39:30.791Z,24.60
2018-06-04T21:41:59.040Z,24.50
2018-06-04T21:44:27.383Z,24.50
2018-06-04T21:46:55.669Z,24.50
2018-06-04T21:49:24.079Z,24.40
2018-06-04T21:51:52.437Z,24.40
2018-06-04T21:54:20.773Z,24.40
2018-06-04T21:56:49.024Z,24.30
2018-06-04T21:59:17.365Z,24.30
2018-06-04T22:01:45.632Z,24.20
2018-06-04T22:04:13.871Z,24.20
2018-06-04T22:06:42.149Z,24.10
2018-06-04T22:09:10.400Z,24.00
2018-06-04T22:11:38.698Z,24.10
2018-06-04T22:14:07.039Z,24.10
2018-06-04T22:16:35.317Z,24.00
2018-06-04T22:19:03.541Z,23.90
2018-06-04T22:21:31.797Z,23.90
2018-06-04T22:24:00.052Z,23.90
2018-06-04T22:26:28.317Z,23.90
2018-06-04T22:28:56.607Z,23.80
2018-06-04T22:31:24.885Z,23.80
2018-06-04T22:33:53.156Z,23.80
2018-06-04T22:36:21.431Z,23.80
2018-06-04T22:38:49.708Z,23.70
2018-06-04T22:41:17.971Z,23.70
2018-06-04T22:43:46.224Z,23.60
2018-06-04T22:46:14.606Z,23.60
2018-06-04T22:48:42.840Z,23.60
2018-06-04T22:51:11.130Z,23.60
2018-06-04T22:53:39.536Z,23.60
2018-06-04T22:56:07.780Z,23.60
2018-06-04T22:58:36.027Z,23.60
2018-06-04T23:01:04.292Z,23.60
2018-06-04T23:06:00.518Z,23.50
2018-06-04T23:08:28.791Z,23.40
2018-06-04T23:10:57.091Z,23.50
2018-06-04T23:13:25.416Z,23.40
2018-06-04T23:15:53.730Z,23.40
2018-06-04T23:18:22.041Z,23.30
2018-06-04T23:20:50.330Z,23.30
2018-06-04T23:23:18.609Z,23.30
2018-06-04T23:28:14.770Z,23.30
2018-06-04T23:30:43.112Z,23.20
2018-06-04T23:33:11.389Z,23.20
2018-06-04T23:35:39.623Z,23.10
2018-06-04T23:38:07.866Z,23.10
2018-06-04T23:40:36.124Z,23.10
2018-06-04T23:43:04.369Z,23.10
2018-06-04T23:45:32.662Z,23.10
2018-06-04T23:48:00.908Z,23.00
2018-06-04T23:50:29.171Z,23.00
2018-06-04T23:52:57.539Z,23.00
2018-06-04T23:55:25.776Z,23.00
2018-06-04T23:57:54.284Z,23.00
